createdAt,value
2022-08-01T00:00:02.338Z,3.83
2022-08-01T00:02:45.275Z,3.50
2022-08-01T00:05:48.378Z,3.93
2022-08-01T00:08:30.187Z,3.90
2022-08-01T00:11:12.102Z,3.40
2022-08-01T00:13:54.120Z,3.47
2022-08-01T00:16:55.853Z,3.33
2022-08-01T00:19:37.757Z,3.60
2022-08-01T00:22:19.551Z,3.47
2022-08-01T00:25:01.900Z,3.37
2022-08-01T00:28:04.196Z,3.13
2022-08-01T00:30:46.249Z,3.03
2022-08-01T00:33:28.025Z,2.90
2022-08-01T00:36:09.877Z,3.07
2022-08-01T00:39:11.648Z,3.33
2022-08-01T00:41:59.620Z,3.30
2022-08-01T00:44:41.963Z,3.00
2022-08-01T00:47:23.782Z,3.03
2022-08-01T00:50:25.703Z,3.13
2022-08-01T00:53:07.924Z,3.43
2022-08-01T00:55:49.834Z,3.60
2022-08-01T00:58:33.237Z,3.27
2022-08-01T01:01:39.409Z,3.57
2022-08-01T01:04:21.916Z,3.30
2022-08-01T01:07:10.484Z,3.40
2022-08-01T01:09:58.783Z,2.80
2022-08-01T01:13:07.758Z,3.30
2022-08-01T01:16:07.333Z,2.77
2022-08-01T01:18:57.173Z,2.87
2022-08-01T01:22:08.374Z,3.30
2022-08-01T01:24:59.275Z,3.17
2022-08-01T01:27:52.315Z,3.03
2022-08-01T01:30:34.652Z,3.20
2022-08-01T01:33:18.366Z,3.43
2022-08-01T01:36:20.375Z,3.57
2022-08-01T01:39:02.765Z,3.20
2022-08-01T01:41:46.290Z,3.60
2022-08-01T01:44:29.737Z,3.57
2022-08-01T01:47:13.961Z,3.30
2022-08-01T01:49:57.380Z,3.60
2022-08-01T01:53:00.107Z,3.67
2022-08-01T01:55:49.559Z,3.27
2022-08-01T01:58:35.052Z,4.30
2022-08-01T02:01:58.447Z,3.60
2022-08-01T02:04:41.630Z,3.10
2022-08-01T02:07:26.745Z,3.67
2022-08-01T02:10:10.869Z,3.27
2022-08-01T02:12:53.105Z,3.70
2022-08-01T02:15:59.233Z,3.07
2022-08-01T02:18:43.034Z,3.47
2022-08-01T02:21:30.783Z,3.80
2022-08-01T02:24:20.366Z,3.57
2022-08-01T02:27:35.648Z,3.30
2022-08-01T02:30:18.489Z,3.10
2022-08-01T02:33:15.703Z,3.30
2022-08-01T02:36:32.511Z,3.20
2022-08-01T02:39:22.779Z,3.43
2022-08-01T02:42:09.242Z,3.07
2022-08-01T02:44:53.395Z,3.00
2022-08-01T02:47:39.079Z,3.17
2022-08-01T02:50:42.873Z,3.33
2022-08-01T02:53:43.853Z,3.83
2022-08-01T02:56:35.663Z,3.37
2022-08-01T02:59:22.181Z,3.93
2022-08-01T03:02:25.029Z,3.83
2022-08-01T03:05:09.305Z,4.10
2022-08-01T03:07:53.921Z,3.13
2022-08-01T03:10:39.822Z,3.63
2022-08-01T03:13:42.790Z,3.50
2022-08-01T03:16:27.390Z,4.10
2022-08-01T03:19:12.554Z,3.70
2022-08-01T03:21:56.780Z,4.10
2022-08-01T03:25:00.262Z,3.90
2022-08-01T03:27:44.605Z,4.00
2022-08-01T03:30:28.303Z,4.50
2022-08-01T03:33:10.876Z,4.03
2022-08-01T03:36:17.226Z,4.47
2022-08-01T03:39:03.391Z,4.20
2022-08-01T03:41:56.491Z,4.20
2022-08-01T03:44:40.261Z,4.20
2022-08-01T03:47:44.874Z,4.60
2022-08-01T03:50:27.860Z,4.90
2022-08-01T03:53:11.271Z,4.83
2022-08-01T03:55:55.113Z,4.27
2022-08-01T03:58:56.927Z,4.20
2022-08-01T04:01:39.510Z,4.33
2022-08-01T04:04:21.638Z,5.50
2022-08-01T04:07:08.585Z,4.67
2022-08-01T04:10:10.318Z,4.73
2022-08-01T04:12:52.676Z,5.33
2022-08-01T04:15:34.519Z,5.40
2022-08-01T04:18:16.317Z,5.27
2022-08-01T04:21:19.235Z,5.60
2022-08-01T04:24:06.057Z,5.23
2022-08-01T04:26:49.950Z,5.60
2022-08-01T04:29:33.798Z,5.17
2022-08-01T04:32:38.622Z,5.23
2022-08-01T04:35:22.524Z,5.03
2022-08-01T04:38:28.415Z,4.50
2022-08-01T04:41:13.575Z,4.67
2022-08-01T04:44:15.470Z,4.80
2022-08-01T04:46:57.873Z,5.17
2022-08-01T04:49:48.673Z,4.57
2022-08-01T04:52:35.786Z,4.00
2022-08-01T04:55:37.566Z,4.70
2022-08-01T04:58:19.573Z,4.13
2022-08-01T05:01:01.419Z,4.60
2022-08-01T05:03:43.365Z,4.60
2022-08-01T05:06:45.075Z,5.10
2022-08-01T05:09:31.084Z,3.80
2022-08-01T05:12:13.193Z,3.93
2022-08-01T05:14:55.054Z,4.10
2022-08-01T05:17:57.550Z,3.93
2022-08-01T05:20:40.000Z,4.10
2022-08-01T05:23:42.060Z,4.10
2022-08-01T05:26:24.009Z,4.17
2022-08-01T05:29:26.127Z,4.37
2022-08-01T05:32:08.260Z,4.23
2022-08-01T05:34:50.457Z,4.47
2022-08-01T05:37:32.994Z,6.63
2022-08-01T05:40:34.730Z,4.63
2022-08-01T05:43:16.584Z,5.30
2022-08-01T05:45:59.484Z,5.40
2022-08-01T05:48:41.293Z,5.23
2022-08-01T05:51:43.009Z,5.23
2022-08-01T05:54:24.810Z,4.40
2022-08-01T05:57:26.546Z,4.40
2022-08-01T06:00:11.231Z,3.63
2022-08-01T06:02:53.023Z,4.00
2022-08-01T06:05:34.838Z,3.50
2022-08-01T06:08:36.892Z,3.60
2022-08-01T06:11:18.736Z,3.33
2022-08-01T06:14:00.547Z,3.93
2022-08-01T06:16:42.337Z,3.33
2022-08-01T06:19:44.119Z,3.83
2022-08-01T06:22:26.054Z,2.70
2022-08-01T06:25:08.865Z,3.07
2022-08-01T06:27:50.865Z,2.87
2022-08-01T06:30:52.753Z,2.53
2022-08-01T06:33:35.130Z,2.63
2022-08-01T06:36:17.022Z,2.53
2022-08-01T06:38:58.815Z,3.07
2022-08-01T06:42:00.531Z,5.53
2022-08-01T06:44:42.965Z,2.50
2022-08-01T06:47:24.809Z,2.83
2022-08-01T06:50:09.733Z,2.90
2022-08-01T06:53:12.389Z,2.83
2022-08-01T06:55:54.249Z,2.83
2022-08-01T06:58:21.366Z,2.40
2022-08-01T07:00:58.026Z,2.20
2022-08-01T07:03:27.709Z,2.27
2022-08-01T07:06:15.974Z,2.10
2022-08-01T07:08:43.044Z,2.10
2022-08-01T07:11:09.955Z,1.83
2022-08-01T07:13:45.495Z,2.00
2022-08-01T07:16:14.008Z,2.17
2022-08-01T07:18:41.594Z,1.87
2022-08-01T07:21:16.723Z,1.93
2022-08-01T07:23:56.012Z,2.10
2022-08-01T07:26:23.496Z,2.00
2022-08-01T07:28:50.540Z,1.83
2022-08-01T07:31:17.737Z,2.07
2022-08-01T07:33:48.473Z,2.10
2022-08-01T07:36:19.566Z,1.90
2022-08-01T07:38:47.516Z,2.43
2022-08-01T07:41:15.117Z,2.00
2022-08-01T07:43:50.548Z,5.67
2022-08-01T07:46:21.922Z,2.10
2022-08-01T07:48:49.065Z,3.17
2022-08-01T07:51:16.065Z,1.83
2022-08-01T07:53:43.175Z,1.30
2022-08-01T07:56:10.781Z,1.65
2022-08-01T07:58:37.715Z,1.43
2022-08-01T08:01:04.821Z,1.90
2022-08-01T08:03:31.761Z,1.90
2022-08-01T08:06:00.216Z,2.33
2022-08-01T08:08:28.442Z,2.10
2022-08-01T08:10:55.520Z,2.17
2022-08-01T08:13:23.039Z,1.73
2022-08-01T08:15:50.121Z,1.93
2022-08-01T08:18:17.514Z,1.50
2022-08-01T08:20:45.225Z,1.67
2022-08-01T08:23:42.894Z,1.37
2022-08-01T08:26:13.854Z,1.60
2022-08-01T08:28:41.091Z,1.53
2022-08-01T08:31:24.886Z,1.57
2022-08-01T08:33:53.189Z,1.60
2022-08-01T08:36:20.099Z,1.20
2022-08-01T08:38:47.100Z,1.30
2022-08-01T08:41:20.736Z,1.40
2022-08-01T08:43:48.825Z,1.45
2022-08-01T08:46:17.008Z,6.18
2022-08-01T08:48:44.252Z,1.58
2022-08-01T08:51:12.415Z,3.78
2022-08-01T08:53:44.815Z,1.50
2022-08-01T08:56:14.843Z,1.27
2022-08-01T08:58:44.816Z,1.10
2022-08-01T09:01:13.458Z,1.15
2022-08-01T09:03:41.947Z,1.50
2022-08-01T09:06:09.267Z,2.53
2022-08-01T09:08:36.878Z,9.32
2022-08-01T09:11:04.975Z,10.60
2022-08-01T09:13:32.216Z,1.63
2022-08-01T09:16:02.238Z,1.40
2022-08-01T09:18:35.371Z,1.45
2022-08-01T09:21:12.587Z,1.38
2022-08-01T09:23:54.489Z,1.73
2022-08-01T09:26:29.665Z,1.77
2022-08-01T09:29:00.386Z,1.52
2022-08-01T09:31:38.340Z,1.40
2022-08-01T09:34:06.443Z,1.58
2022-08-01T09:36:55.466Z,1.42
2022-08-01T09:39:30.956Z,1.60
2022-08-01T09:42:00.619Z,1.55
2022-08-01T09:44:44.762Z,1.42
2022-08-01T09:47:15.561Z,1.63
2022-08-01T09:49:50.699Z,1.40
2022-08-01T09:52:28.733Z,1.27
2022-08-01T09:55:07.141Z,1.50
2022-08-01T09:57:34.721Z,1.85
2022-08-01T10:00:04.838Z,1.85
2022-08-01T10:02:35.996Z,1.73
2022-08-01T10:05:08.374Z,2.00
2022-08-01T10:07:55.532Z,13.70
2022-08-01T10:10:29.197Z,1.70
2022-08-01T10:13:00.382Z,1.98
2022-08-01T10:15:36.955Z,1.77
2022-08-01T10:18:16.655Z,1.80
2022-08-01T10:20:52.893Z,2.03
2022-08-01T10:23:39.877Z,2.13
2022-08-01T10:26:09.383Z,1.98
2022-08-01T10:28:40.692Z,2.10
2022-08-01T10:31:13.217Z,1.75
2022-08-01T10:33:50.509Z,1.70
2022-08-01T10:36:22.703Z,2.15
2022-08-01T10:38:50.970Z,2.05
2022-08-01T10:41:20.214Z,1.88
2022-08-01T10:43:47.246Z,1.83
2022-08-01T10:46:14.959Z,1.80
2022-08-01T10:48:59.684Z,1.80
2022-08-01T10:51:52.566Z,1.85
2022-08-01T10:54:16.061Z,1.80
2022-08-01T10:56:46.483Z,1.80
2022-08-01T10:59:49.310Z,1.60
2022-08-01T11:02:11.069Z,1.60
2022-08-01T11:05:02.290Z,2.25
2022-08-01T11:07:53.885Z,1.90
2022-08-01T11:10:26.295Z,1.77
2022-08-01T11:12:53.852Z,1.90
2022-08-01T11:15:29.576Z,1.92
2022-08-01T11:18:00.652Z,3.15
2022-08-01T11:20:34.218Z,4.60
2022-08-01T11:23:02.422Z,3.47
2022-08-01T11:26:05.708Z,1.73
2022-08-01T11:28:34.810Z,1.83
2022-08-01T11:31:11.854Z,2.03
2022-08-01T11:33:41.452Z,1.77
2022-08-01T11:36:15.625Z,1.60
2022-08-01T11:38:47.610Z,2.13
2022-08-01T11:41:21.066Z,1.58
2022-08-01T11:44:17.052Z,1.40
2022-08-01T11:46:55.852Z,1.65
2022-08-01T11:49:30.950Z,1.35
2022-08-01T11:52:01.662Z,1.58
2022-08-01T11:54:35.622Z,1.70
2022-08-01T11:57:12.058Z,1.70
2022-08-01T11:59:41.120Z,1.70
2022-08-01T12:02:35.222Z,1.67
2022-08-01T12:05:12.066Z,1.83
2022-08-01T12:07:41.284Z,1.90
2022-08-01T12:10:10.238Z,2.83
2022-08-01T12:12:38.642Z,10.45
2022-08-01T12:15:09.914Z,2.08
2022-08-01T12:17:40.297Z,1.67
2022-08-01T12:20:21.346Z,1.67
2022-08-01T12:22:48.779Z,1.80
2022-08-01T12:25:20.332Z,1.70
2022-08-01T12:27:51.189Z,3.15
2022-08-01T12:30:25.989Z,4.05
2022-08-01T12:32:54.488Z,2.50
2022-08-01T12:35:26.545Z,2.33
2022-08-01T12:37:56.256Z,2.20
2022-08-01T12:40:27.110Z,2.50
2022-08-01T12:42:56.498Z,2.63
2022-08-01T12:45:27.571Z,2.67
2022-08-01T12:47:55.946Z,2.55
2022-08-01T12:50:25.825Z,2.28
2022-08-01T12:52:53.175Z,2.30
2022-08-01T12:55:34.050Z,2.47
2022-08-01T12:58:15.650Z,2.63
2022-08-01T13:00:45.884Z,2.20
2022-08-01T13:03:21.275Z,2.10
2022-08-01T13:05:52.818Z,2.40
2022-08-01T13:08:21.035Z,2.15
2022-08-01T13:10:49.325Z,2.42
2022-08-01T13:13:28.040Z,2.42
2022-08-01T13:16:06.408Z,2.65
2022-08-01T13:18:35.066Z,2.75
2022-08-01T13:21:09.620Z,2.47
2022-08-01T13:24:03.437Z,2.55
2022-08-01T13:26:41.638Z,2.53
2022-08-01T13:29:10.271Z,2.45
2022-08-01T13:31:38.470Z,2.55
2022-08-01T13:34:06.289Z,2.63
2022-08-01T13:36:34.233Z,2.40
2022-08-01T13:39:20.790Z,2.85
2022-08-01T13:41:48.826Z,2.47
2022-08-01T13:44:16.109Z,2.80
2022-08-01T13:46:49.240Z,3.00
2022-08-01T13:49:17.550Z,3.05
2022-08-01T13:51:47.373Z,3.10
2022-08-01T13:54:14.519Z,3.15
2022-08-01T13:56:41.787Z,3.25
2022-08-01T13:59:09.058Z,3.15
2022-08-01T14:01:36.559Z,3.33
2022-08-01T14:04:04.361Z,3.45
2022-08-01T14:06:32.725Z,3.20
2022-08-01T14:08:59.657Z,3.40
2022-08-01T14:11:30.525Z,3.00
2022-08-01T14:14:04.995Z,3.17
2022-08-01T14:16:38.530Z,3.00
2022-08-01T14:19:05.464Z,3.30
2022-08-01T14:21:32.392Z,2.92
2022-08-01T14:23:59.504Z,3.15
2022-08-01T14:26:26.399Z,2.58
2022-08-01T14:28:53.501Z,2.90
2022-08-01T14:31:20.629Z,3.47
2022-08-01T14:33:47.542Z,2.60
2022-08-01T14:36:28.999Z,2.42
2022-08-01T14:39:00.028Z,2.78
2022-08-01T14:41:28.671Z,3.75
2022-08-01T14:43:58.404Z,2.78
2022-08-01T14:46:25.620Z,2.55
2022-08-01T14:48:52.934Z,2.30
2022-08-01T14:51:19.999Z,2.33
2022-08-01T14:53:50.862Z,2.00
2022-08-01T14:56:20.076Z,2.25
2022-08-01T14:58:47.038Z,2.15
2022-08-01T15:01:15.985Z,2.30
2022-08-01T15:03:43.162Z,2.22
2022-08-01T15:06:12.274Z,2.00
2022-08-01T15:08:39.711Z,2.55
2022-08-01T15:11:06.981Z,2.42
2022-08-01T15:13:33.897Z,2.17
2022-08-01T15:16:01.216Z,2.90
2022-08-01T15:18:29.281Z,2.50
2022-08-01T15:20:58.313Z,2.90
2022-08-01T15:23:25.472Z,2.75
2022-08-01T15:25:53.229Z,2.92
2022-08-01T15:28:20.927Z,3.03
2022-08-01T15:30:48.077Z,2.83
2022-08-01T15:33:15.176Z,2.42
2022-08-01T15:35:43.539Z,2.25
2022-08-01T15:38:16.278Z,2.30
2022-08-01T15:40:43.173Z,2.08
2022-08-01T15:43:10.165Z,2.65
2022-08-01T15:45:47.816Z,2.75
2022-08-01T15:48:16.051Z,2.10
2022-08-01T15:50:43.245Z,2.45
2022-08-01T15:53:10.190Z,2.25
2022-08-01T15:55:38.250Z,2.22
2022-08-01T15:58:06.113Z,2.38
2022-08-01T16:00:39.108Z,2.00
2022-08-01T16:03:08.091Z,2.08
2022-08-01T16:05:42.573Z,1.90
2022-08-01T16:08:14.453Z,1.80
2022-08-01T16:10:41.780Z,2.20
2022-08-01T16:13:09.458Z,1.85
2022-08-01T16:15:38.278Z,2.35
2022-08-01T16:18:12.599Z,2.55
2022-08-01T16:20:45.015Z,2.28
2022-08-01T16:23:14.358Z,2.03
2022-08-01T16:25:41.602Z,1.70
2022-08-01T16:28:09.873Z,1.90
2022-08-01T16:30:43.360Z,2.50
2022-08-01T16:33:46.128Z,1.88
2022-08-01T16:36:09.223Z,2.58
2022-08-01T16:38:44.598Z,2.75
2022-08-01T16:41:19.980Z,2.25
2022-08-01T16:43:53.611Z,2.55
2022-08-01T16:46:23.355Z,2.25
2022-08-01T16:48:50.596Z,2.40
2022-08-01T16:51:17.552Z,2.30
2022-08-01T16:53:44.475Z,2.30
2022-08-01T16:56:11.573Z,2.58
2022-08-01T16:58:38.557Z,2.40
2022-08-01T17:01:57.930Z,2.30
2022-08-01T17:03:55.824Z,2.45
2022-08-01T17:06:26.575Z,2.63
2022-08-01T17:08:53.707Z,2.72
2022-08-01T17:11:20.602Z,2.50
2022-08-01T17:13:47.713Z,2.80
2022-08-01T17:16:14.913Z,2.60
2022-08-01T17:18:41.891Z,2.35
2022-08-01T17:21:09.072Z,2.65
2022-08-01T17:23:36.574Z,2.50
2022-08-01T17:26:03.665Z,2.28
2022-08-01T17:28:30.574Z,2.78
2022-08-01T17:30:57.929Z,2.47
2022-08-01T17:33:24.980Z,2.47
2022-08-01T17:36:12.805Z,2.80
2022-08-01T17:38:39.681Z,2.67
2022-08-01T17:41:06.599Z,3.03
2022-08-01T17:43:33.751Z,2.50
2022-08-01T17:46:00.717Z,2.20
2022-08-01T17:48:28.270Z,2.90
2022-08-01T17:50:56.338Z,2.75
2022-08-01T17:53:24.058Z,2.50
2022-08-01T17:55:58.639Z,2.20
2022-08-01T17:58:49.115Z,2.28
2022-08-01T18:01:15.445Z,2.58
2022-08-01T18:03:42.597Z,2.47
2022-08-01T18:06:11.018Z,2.30
2022-08-01T18:08:40.470Z,2.25
2022-08-01T18:11:08.177Z,2.55
2022-08-01T18:13:36.466Z,2.10
2022-08-01T18:16:09.383Z,2.13
2022-08-01T18:18:38.684Z,2.60
2022-08-01T18:21:07.608Z,2.70
2022-08-01T18:23:35.224Z,2.40
2022-08-01T18:26:06.827Z,2.20
2022-08-01T18:28:41.815Z,2.60
2022-08-01T18:31:16.384Z,2.50
2022-08-01T18:33:43.344Z,2.30
2022-08-01T18:36:21.906Z,2.73
2022-08-01T18:38:58.258Z,1.97
2022-08-01T18:41:25.330Z,2.40
2022-08-01T18:43:52.431Z,2.57
2022-08-01T18:46:31.280Z,2.57
2022-08-01T18:48:58.308Z,2.63
2022-08-01T18:51:26.498Z,2.60
2022-08-01T18:53:55.805Z,2.37
2022-08-01T18:56:22.718Z,2.20
2022-08-01T18:58:49.953Z,3.67
2022-08-01T19:01:17.307Z,2.73
2022-08-01T19:03:44.252Z,2.50
2022-08-01T19:06:11.273Z,2.70
2022-08-01T19:08:38.537Z,2.73
2022-08-01T19:11:06.342Z,2.83
2022-08-01T19:13:33.892Z,2.80
2022-08-01T19:16:01.142Z,2.70
2022-08-01T19:18:28.439Z,2.93
2022-08-01T19:20:55.386Z,3.00
2022-08-01T19:23:41.288Z,3.00
2022-08-01T19:26:12.435Z,2.90
2022-08-01T19:28:46.320Z,3.10
2022-08-01T19:31:15.165Z,2.83
2022-08-01T19:33:42.612Z,3.07
2022-08-01T19:36:16.596Z,3.50
2022-08-01T19:38:44.290Z,3.03
2022-08-01T19:41:13.797Z,2.70
2022-08-01T19:43:46.146Z,2.90
2022-08-01T19:46:17.775Z,3.07
2022-08-01T19:48:49.908Z,3.10
2022-08-01T19:51:22.649Z,3.10
2022-08-01T19:54:05.098Z,3.57
2022-08-01T19:56:40.331Z,3.47
2022-08-01T19:59:08.377Z,3.00
2022-08-01T20:01:36.946Z,3.40
2022-08-01T20:04:04.897Z,3.07
2022-08-01T20:06:33.209Z,3.27
2022-08-01T20:09:00.965Z,4.00
2022-08-01T20:11:28.091Z,4.03
2022-08-01T20:13:58.686Z,3.60
2022-08-01T20:16:28.353Z,4.47
2022-08-01T20:18:56.168Z,4.57
2022-08-01T20:21:25.158Z,4.00
2022-08-01T20:24:02.517Z,3.90
2022-08-01T20:26:31.725Z,3.57
2022-08-01T20:29:00.384Z,3.83
2022-08-01T20:31:36.126Z,3.70
2022-08-01T20:34:15.692Z,4.07
2022-08-01T20:36:48.046Z,3.53
2022-08-01T20:39:24.565Z,3.90
2022-08-01T20:42:00.247Z,4.30
2022-08-01T20:44:31.462Z,4.30
2022-08-01T20:46:59.366Z,4.20
2022-08-01T20:49:26.861Z,3.90
2022-08-01T20:51:54.110Z,4.13
2022-08-01T20:54:21.060Z,4.07
2022-08-01T20:57:25.446Z,3.77
2022-08-01T21:00:02.013Z,3.30
2022-08-01T21:02:51.589Z,4.17
2022-08-01T21:05:29.370Z,3.80
2022-08-01T21:08:21.690Z,3.73
2022-08-01T21:10:55.556Z,4.40
2022-08-01T21:13:38.746Z,4.33
2022-08-01T21:16:23.857Z,3.90
2022-08-01T21:19:19.263Z,4.30
2022-08-01T21:21:53.670Z,4.20
2022-08-01T21:24:25.054Z,4.03
2022-08-01T21:26:53.057Z,4.00
2022-08-01T21:29:22.399Z,4.40
2022-08-01T21:32:10.823Z,4.30
2022-08-01T21:34:39.757Z,3.83
2022-08-01T21:37:10.316Z,4.00
2022-08-01T21:39:38.419Z,4.13
2022-08-01T21:42:09.234Z,4.13
2022-08-01T21:44:39.730Z,3.70
2022-08-01T21:47:11.966Z,4.33
2022-08-01T21:49:41.126Z,3.83
2022-08-01T21:52:15.280Z,4.27
2022-08-01T21:54:57.665Z,4.10
2022-08-01T21:57:41.893Z,4.33
2022-08-01T22:00:26.135Z,4.43
2022-08-01T22:03:23.566Z,4.00
2022-08-01T22:05:53.897Z,4.07
2022-08-01T22:08:35.174Z,4.90
2022-08-01T22:11:06.290Z,4.73
2022-08-01T22:13:36.487Z,4.67
2022-08-01T22:16:05.530Z,4.40
2022-08-01T22:18:33.904Z,4.97
2022-08-01T22:21:02.306Z,4.80
2022-08-01T22:23:29.336Z,4.30
2022-08-01T22:25:56.510Z,4.50
2022-08-01T22:28:24.147Z,4.93
2022-08-01T22:30:52.203Z,5.07
2022-08-01T22:33:20.138Z,4.37
2022-08-01T22:35:52.875Z,5.07
2022-08-01T22:38:22.616Z,4.73
2022-08-01T22:40:53.404Z,4.67
2022-08-01T22:43:35.169Z,4.80
2022-08-01T22:46:15.245Z,4.83
2022-08-01T22:48:48.808Z,4.80
2022-08-01T22:51:38.276Z,5.53
2022-08-01T22:54:07.350Z,5.60
2022-08-01T22:56:39.154Z,5.27
2022-08-01T22:59:14.847Z,4.67
2022-08-01T23:01:48.014Z,4.67
2022-08-01T23:04:39.605Z,5.60
2022-08-01T23:07:11.152Z,5.70
2022-08-01T23:09:53.269Z,5.20
2022-08-01T23:12:26.888Z,4.80
2022-08-01T23:14:56.138Z,5.00
2022-08-01T23:17:29.466Z,5.40
2022-08-01T23:20:02.213Z,6.07
2022-08-01T23:22:31.828Z,5.60
2022-08-01T23:25:04.278Z,5.17
2022-08-01T23:27:54.151Z,5.17
2022-08-01T23:30:31.752Z,6.10
2022-08-01T23:32:59.466Z,5.83
2022-08-01T23:35:27.216Z,5.83
2022-08-01T23:37:58.531Z,5.33
2022-08-01T23:40:33.909Z,5.77
2022-08-01T23:43:02.176Z,5.77
2022-08-01T23:46:02.291Z,6.03
2022-08-01T23:48:16.926Z,5.43
2022-08-01T23:50:43.926Z,6.20
2022-08-01T23:53:10.935Z,5.47
2022-08-01T23:55:40.574Z,5.30
2022-08-01T23:58:10.458Z,5.77
